Flight Track Log - Related Links

Times and Time Zones

All times are in EDT time to prevent confusion due to time zone crossing. See the UAL4695 flight status page for this flight to view local times or setup timezone preferences in your user account.

Time Position Orientation Groundspeed Altitude Reporting Facility
EDT Latitude Longitude Course Direction KTS MPH feet Rate Location/Type
Wed 11:49:41 PM 40.6500 -74.1833 194° South 173 199 2,000  Level New York TRACON
Wed 11:50:41 PM 40.6000 -74.2000 194° South 207 238 3,800 1,900 Climbing New York TRACON
Wed 11:51:41 PM 40.6500 -74.2500 323° Northwest 259 298 5,800 1,900 Climbing New York TRACON
Wed 11:52:41 PM 40.7167 -74.1833 37° Northeast 295 339 7,600 2,000 Climbing New York TRACON
Wed 11:53:41 PM 40.7667 -74.1000 52° Northeast 315 362 9,800 1,500 Climbing New York TRACON
Wed 11:54:41 PM 40.8333 -74.0000 49° Northeast 363 418 10,600 900 Climbing New York TRACON
Wed 11:55:41 PM 40.9000 -73.9000 49° Northeast 401 461 11,600 1,238 Climbing New York TRACON
Wed 11:56:47 PM 41.0000 -73.8000 37° Northeast 403 464 13,200 1,100 Climbing New York TRACON
Wed 11:57:41 PM 41.0667 -73.7333 37° Northeast 368 423 13,800 1,450 Climbing New York TRACON
Wed 11:58:47 PM 41.2000 -73.6000 37° Northeast 414 476 16,100 1,550 Climbing New York TRACON
Wed 11:59:41 PM 41.2833 -73.5167 37° Northeast 443 510 16,900 394 Climbing New York TRACON
Thu 12:01:04 AM 41.4233 -73.3731 39° Northeast 457 526 17,000 713 Climbing Boston Center
Thu 12:02:04 AM 41.5200 -73.2636 40° Northeast 465 535 18,600 1,500 Climbing Boston Center
Thu 12:03:04 AM 41.6042 -73.1619 42° Northeast 454 522 20,000 1,200 Climbing Boston Center
Thu 12:04:04 AM 41.7169 -73.1269 13° North 408 470 21,000 500 Climbing Boston Center
Thu 12:05:04 AM 41.8397 -73.1450 354° North 408 470 21,000  Level Boston Center
Thu 12:06:04 AM 41.9667 -73.1689 352° North 431 496 21,000  Level Boston Center
Thu 12:07:04 AM 42.1103 -73.1900 354° North 453 521 21,000  Level Boston Center
Thu 12:08:04 AM 42.2372 -73.2142 352° North 460 529 21,000 -350 Level Boston Center
Thu 12:09:04 AM 42.3519 -73.2239 356° North 465 535 20,300 -850 Descending Boston Center
Thu 12:10:04 AM 42.4811 -73.2339 357° North 465 535 19,300 -650 Descending Boston Center
Thu 12:11:04 AM 42.5900 -73.1481 30° Northeast 421 484 19,000 -150 Descending Boston Center
Thu 12:12:04 AM 42.6472 -72.9764 66° East 415 478 19,000  Level Boston Center
Thu 12:13:04 AM 42.6831 -72.8297 72° East 423 487 19,000 -600 Level Boston Center
Thu 12:14:04 AM 42.7169 -72.6661 74° East 434 499 17,800 -1,200 Descending Boston Center
Thu 12:15:04 AM 42.7506 -72.5050 74° East 439 505 16,600 -1,250 Descending Boston Center
Thu 12:16:04 AM 42.7839 -72.3467 74° East 439 505 15,300 -1,650 Descending Boston Center
Thu 12:17:04 AM 42.8003 -72.1856 82° East 428 493 13,300 -2,500 Descending Boston Center
Thu 12:18:04 AM 42.8436 -72.0322 69° East 418 481 10,300 -2,000 Descending Boston Center
Thu 12:19:04 AM 42.9017 -71.9497 46° Northeast 354 407 9,300 -1,300 Descending Boston Center
Thu 12:20:04 AM 42.9617 -71.8586 48° Northeast 307 353 7,700 -1,500 Descending Boston Center
Thu 12:21:04 AM 43.0133 -71.7814 48° Northeast 295 339 6,300 -1,500 Descending Boston Center
Thu 12:22:04 AM 43.0647 -71.6756 56° Northeast 295 339 4,700 -1,500 Descending Boston Center
Thu 12:23:04 AM 43.0850 -71.5786 74° East 295 339 3,300 -1,200 Descending Boston Center
Thu 12:24:04 AM 43.0531 -71.5081 122° Southeast 212 244 2,300 -700 Descending Boston Center
Thu 12:25:04 AM 43.0133 -71.4861 158° South 169 194 1,900 -600 Descending Boston Center
Thu 12:26:04 AM 42.9778 -71.4611 153° Southeast 148 170 1,100 -700 Descending Boston Center
Thu 12:27:04 AM 42.9506 -71.4472 160° South 131 151 500 -350 Descending Boston Center
Thu 12:28:04 AM 42.9150 -71.4308 161° South 131 151 400 9,250 Descending Boston Center
Thu 12:29:04 AM 42.8836 -71.4172 162° South 131 151 19,000 9,300 Climbing Boston Center
Thu 12:30:04 AM 42.8522 -71.4036 162° South 131 151 19,000  Level Boston Center
Thu 12:32:00 AM 42.9167 -71.4333 316° Northwest  Level FlightAware Approximate

Login

Don't have an account? Register now (free) for customized features, flight alerts, and more!